sensor_id;sensor_type;location;lat;lon;timestamp;P1;durP1;ratioP1;P2;durP2;ratioP2
23119;SDS011;11729;50.836;4.330;2022-08-06T05:50:41;6.60;;;5.55;;
23119;SDS011;11729;50.836;4.330;2022-08-06T05:53:13;11.38;;;6.22;;
23119;SDS011;11729;50.836;4.330;2022-08-06T05:55:48;15.13;;;6.38;;
23119;SDS011;11729;50.836;4.330;2022-08-06T05:58:34;8.80;;;5.55;;
23119;SDS011;11729;50.836;4.330;2022-08-06T06:01:12;12.88;;;6.18;;
23119;SDS011;11729;50.836;4.330;2022-08-06T06:03:39;8.45;;;5.43;;
23119;SDS011;11729;50.836;4.330;2022-08-06T06:06:06;10.00;;;5.80;;
23119;SDS011;11729;50.836;4.330;2022-08-06T06:08:32;10.55;;;5.75;;
23119;SDS011;11729;50.836;4.330;2022-08-06T06:10:59;10.10;;;5.95;;
23119;SDS011;11729;50.836;4.330;2022-08-06T06:13:26;11.98;;;5.90;;
23119;SDS011;11729;50.836;4.330;2022-08-06T06:27:13;10.38;;;5.82;;
23119;SDS011;11729;50.836;4.330;2022-08-06T06:33:02;7.03;;;5.38;;
23119;SDS011;11729;50.836;4.330;2022-08-06T06:40:56;9.10;;;5.80;;
23119;SDS011;11729;50.836;4.330;2022-08-06T06:43:44;9.95;;;5.38;;
23119;SDS011;11729;50.836;4.330;2022-08-06T06:46:41;9.20;;;5.40;;
23119;SDS011;11729;50.836;4.330;2022-08-06T06:49:34;8.90;;;5.53;;
23119;SDS011;11729;50.836;4.330;2022-08-06T06:52:07;6.60;;;5.25;;
23119;SDS011;11729;50.836;4.330;2022-08-06T06:54:38;11.20;;;5.82;;
23119;SDS011;11729;50.836;4.330;2022-08-06T06:57:09;10.70;;;6.10;;
23119;SDS011;11729;50.836;4.330;2022-08-06T06:59:39;10.38;;;5.78;;
23119;SDS011;11729;50.836;4.330;2022-08-06T07:02:12;9.27;;;5.80;;
23119;SDS011;11729;50.836;4.330;2022-08-06T07:04:43;8.85;;;5.85;;
23119;SDS011;11729;50.836;4.330;2022-08-06T07:07:10;7.43;;;5.38;;
23119;SDS011;11729;50.836;4.330;2022-08-06T07:09:37;11.43;;;5.82;;
23119;SDS011;11729;50.836;4.330;2022-08-06T07:12:04;10.30;;;5.95;;
23119;SDS011;11729;50.836;4.330;2022-08-06T07:14:34;16.83;;;7.05;;
23119;SDS011;11729;50.836;4.330;2022-08-06T07:17:02;16.25;;;7.85;;
23119;SDS011;11729;50.836;4.330;2022-08-06T07:19:30;10.18;;;5.00;;
23119;SDS011;11729;50.836;4.330;2022-08-06T07:21:57;11.35;;;5.20;;
23119;SDS011;11729;50.836;4.330;2022-08-06T07:24:24;13.95;;;5.38;;
23119;SDS011;11729;50.836;4.330;2022-08-06T07:26:51;12.13;;;5.10;;
23119;SDS011;11729;50.836;4.330;2022-08-06T07:29:20;16.17;;;5.10;;
23119;SDS011;11729;50.836;4.330;2022-08-06T07:31:48;5.75;;;4.30;;
23119;SDS011;11729;50.836;4.330;2022-08-06T07:34:14;11.98;;;4.95;;
23119;SDS011;11729;50.836;4.330;2022-08-06T07:36:48;10.05;;;5.13;;
23119;SDS011;11729;50.836;4.330;2022-08-06T07:39:22;8.27;;;4.57;;
23119;SDS011;11729;50.836;4.330;2022-08-06T07:41:51;17.33;;;4.78;;
23119;SDS011;11729;50.836;4.330;2022-08-06T07:44:19;9.35;;;5.03;;
23119;SDS011;11729;50.836;4.330;2022-08-06T07:46:52;10.57;;;4.50;;
23119;SDS011;11729;50.836;4.330;2022-08-06T07:49:24;9.07;;;5.10;;
23119;SDS011;11729;50.836;4.330;2022-08-06T07:51:55;11.85;;;4.85;;
23119;SDS011;11729;50.836;4.330;2022-08-06T07:54:23;10.25;;;5.53;;
23119;SDS011;11729;50.836;4.330;2022-08-06T07:56:54;11.70;;;4.65;;
23119;SDS011;11729;50.836;4.330;2022-08-06T07:59:20;11.77;;;5.20;;
23119;SDS011;11729;50.836;4.330;2022-08-06T08:01:45;7.30;;;5.20;;
23119;SDS011;11729;50.836;4.330;2022-08-06T08:04:12;9.38;;;5.03;;
23119;SDS011;11729;50.836;4.330;2022-08-06T08:07:01;10.05;;;4.70;;
23119;SDS011;11729;50.836;4.330;2022-08-06T08:09:29;9.60;;;4.78;;
23119;SDS011;11729;50.836;4.330;2022-08-06T08:11:57;7.80;;;4.40;;
23119;SDS011;11729;50.836;4.330;2022-08-06T08:14:23;7.85;;;4.38;;
23119;SDS011;11729;50.836;4.330;2022-08-06T08:16:50;7.00;;;4.18;;
23119;SDS011;11729;50.836;4.330;2022-08-06T08:19:19;7.50;;;4.38;;
23119;SDS011;11729;50.836;4.330;2022-08-06T08:21:47;9.02;;;4.15;;
23119;SDS011;11729;50.836;4.330;2022-08-06T08:24:13;9.10;;;4.50;;
23119;SDS011;11729;50.836;4.330;2022-08-06T08:26:38;9.68;;;4.40;;
23119;SDS011;11729;50.836;4.330;2022-08-06T08:29:04;6.50;;;4.45;;
23119;SDS011;11729;50.836;4.330;2022-08-06T08:31:29;8.02;;;4.50;;
23119;SDS011;11729;50.836;4.330;2022-08-06T08:33:55;8.25;;;4.45;;
23119;SDS011;11729;50.836;4.330;2022-08-06T08:36:21;5.85;;;4.15;;
23119;SDS011;11729;50.836;4.330;2022-08-06T08:38:48;11.02;;;4.35;;
23119;SDS011;11729;50.836;4.330;2022-08-06T08:41:19;5.60;;;3.80;;
23119;SDS011;11729;50.836;4.330;2022-08-06T08:43:55;4.80;;;4.03;;
23119;SDS011;11729;50.836;4.330;2022-08-06T08:46:25;6.17;;;4.10;;
23119;SDS011;11729;50.836;4.330;2022-08-06T08:48:52;4.55;;;4.10;;
23119;SDS011;11729;50.836;4.330;2022-08-06T08:51:19;4.43;;;3.95;;
23119;SDS011;11729;50.836;4.330;2022-08-06T08:53:52;6.67;;;4.10;;
23119;SDS011;11729;50.836;4.330;2022-08-06T08:56:19;4.82;;;4.18;;
23119;SDS011;11729;50.836;4.330;2022-08-06T08:58:45;6.22;;;4.15;;
23119;SDS011;11729;50.836;4.330;2022-08-06T09:03:39;10.68;;;4.35;;
23119;SDS011;11729;50.836;4.330;2022-08-06T09:06:05;6.22;;;4.20;;
23119;SDS011;11729;50.836;4.330;2022-08-06T09:08:31;4.70;;;3.78;;
23119;SDS011;11729;50.836;4.330;2022-08-06T09:10:58;7.28;;;3.97;;
23119;SDS011;11729;50.836;4.330;2022-08-06T09:13:27;5.53;;;3.90;;
23119;SDS011;11729;50.836;4.330;2022-08-06T09:15:54;10.32;;;4.00;;
23119;SDS011;11729;50.836;4.330;2022-08-06T09:18:21;4.65;;;4.10;;
23119;SDS011;11729;50.836;4.330;2022-08-06T09:20:47;6.40;;;3.90;;
23119;SDS011;11729;50.836;4.330;2022-08-06T09:23:14;7.20;;;4.15;;
23119;SDS011;11729;50.836;4.330;2022-08-06T09:25:47;4.95;;;3.78;;
23119;SDS011;11729;50.836;4.330;2022-08-06T09:30:59;7.82;;;3.97;;
23119;SDS011;11729;50.836;4.330;2022-08-06T09:33:27;7.72;;;5.03;;
23119;SDS011;11729;50.836;4.330;2022-08-06T09:35:58;7.25;;;4.35;;
23119;SDS011;11729;50.836;4.330;2022-08-06T09:38:24;6.40;;;4.10;;
23119;SDS011;11729;50.836;4.330;2022-08-06T09:43:28;8.02;;;4.22;;
23119;SDS011;11729;50.836;4.330;2022-08-06T09:45:54;7.28;;;4.15;;
23119;SDS011;11729;50.836;4.330;2022-08-06T09:48:20;6.30;;;3.85;;
23119;SDS011;11729;50.836;4.330;2022-08-06T09:50:45;6.45;;;4.43;;
23119;SDS011;11729;50.836;4.330;2022-08-06T09:53:12;4.57;;;4.00;;
23119;SDS011;11729;50.836;4.330;2022-08-06T09:55:39;5.72;;;3.90;;
23119;SDS011;11729;50.836;4.330;2022-08-06T09:58:05;7.60;;;4.15;;
23119;SDS011;11729;50.836;4.330;2022-08-06T10:00:33;6.53;;;4.43;;
23119;SDS011;11729;50.836;4.330;2022-08-06T10:03:00;5.85;;;3.90;;
23119;SDS011;11729;50.836;4.330;2022-08-06T10:05:27;7.43;;;4.00;;
23119;SDS011;11729;50.836;4.330;2022-08-06T10:08:10;8.43;;;4.40;;
23119;SDS011;11729;50.836;4.330;2022-08-06T10:10:43;6.07;;;4.20;;
23119;SDS011;11729;50.836;4.330;2022-08-06T10:15:44;7.60;;;3.85;;
23119;SDS011;11729;50.836;4.330;2022-08-06T10:18:11;11.63;;;4.40;;
23119;SDS011;11729;50.836;4.330;2022-08-06T10:21:05;6.65;;;4.05;;
23119;SDS011;11729;50.836;4.330;2022-08-06T10:23:33;6.38;;;4.15;;
23119;SDS011;11729;50.836;4.330;2022-08-06T10:26:01;4.72;;;3.70;;
23119;SDS011;11729;50.836;4.330;2022-08-06T10:28:34;7.47;;;3.80;;
23119;SDS011;11729;50.836;4.330;2022-08-06T10:31:02;4.25;;;3.58;;
23119;SDS011;11729;50.836;4.330;2022-08-06T10:33:31;4.97;;;3.83;;
23119;SDS011;11729;50.836;4.330;2022-08-06T10:36:03;6.13;;;3.95;;
23119;SDS011;11729;50.836;4.330;2022-08-06T10:38:33;5.30;;;4.07;;
23119;SDS011;11729;50.836;4.330;2022-08-06T10:41:11;5.20;;;3.50;;
23119;SDS011;11729;50.836;4.330;2022-08-06T10:43:38;5.05;;;3.40;;
23119;SDS011;11729;50.836;4.330;2022-08-06T10:46:08;5.28;;;3.35;;
23119;SDS011;11729;50.836;4.330;2022-08-06T10:48:38;4.85;;;3.50;;
23119;SDS011;11729;50.836;4.330;2022-08-06T10:51:06;4.50;;;3.90;;
23119;SDS011;11729;50.836;4.330;2022-08-06T10:53:35;6.85;;;4.00;;
23119;SDS011;11729;50.836;4.330;2022-08-06T10:56:05;6.43;;;4.03;;
23119;SDS011;11729;50.836;4.330;2022-08-06T10:58:33;5.35;;;4.25;;
23119;SDS011;11729;50.836;4.330;2022-08-06T11:03:35;4.38;;;3.60;;
23119;SDS011;11729;50.836;4.330;2022-08-06T11:06:36;4.55;;;3.90;;
23119;SDS011;11729;50.836;4.330;2022-08-06T11:14:49;5.80;;;3.70;;
23119;SDS011;11729;50.836;4.330;2022-08-06T11:17:15;5.78;;;3.40;;
23119;SDS011;11729;50.836;4.330;2022-08-06T11:22:32;6.47;;;3.80;;
23119;SDS011;11729;50.836;4.330;2022-08-06T11:24:59;5.65;;;4.00;;
23119;SDS011;11729;50.836;4.330;2022-08-06T11:30:13;3.93;;;3.40;;
23119;SDS011;11729;50.836;4.330;2022-08-06T11:32:47;6.97;;;3.40;;
23119;SDS011;11729;50.836;4.330;2022-08-06T11:37:58;4.95;;;3.80;;
23119;SDS011;11729;50.836;4.330;2022-08-06T11:49:08;4.53;;;3.60;;
23119;SDS011;11729;50.836;4.330;2022-08-06T11:51:41;5.82;;;3.42;;
23119;SDS011;11729;50.836;4.330;2022-08-06T12:02:13;6.82;;;4.05;;
23119;SDS011;11729;50.836;4.330;2022-08-06T12:05:00;4.95;;;3.70;;
23119;SDS011;11729;50.836;4.330;2022-08-06T12:07:30;6.93;;;4.03;;
23119;SDS011;11729;50.836;4.330;2022-08-06T12:20:35;7.72;;;5.10;;
23119;SDS011;11729;50.836;4.330;2022-08-06T12:23:03;4.65;;;3.97;;
23119;SDS011;11729;50.836;4.330;2022-08-06T12:27:58;4.47;;;4.13;;
23119;SDS011;11729;50.836;4.330;2022-08-06T12:30:24;5.13;;;4.10;;
23119;SDS011;11729;50.836;4.330;2022-08-06T12:32:59;4.40;;;4.00;;
23119;SDS011;11729;50.836;4.330;2022-08-06T12:35:25;5.68;;;4.00;;
23119;SDS011;11729;50.836;4.330;2022-08-06T12:37:52;8.63;;;3.80;;
23119;SDS011;11729;50.836;4.330;2022-08-06T12:40:19;4.00;;;3.60;;
23119;SDS011;11729;50.836;4.330;2022-08-06T12:43:10;5.75;;;3.90;;
23119;SDS011;11729;50.836;4.330;2022-08-06T12:45:36;5.75;;;4.20;;
23119;SDS011;11729;50.836;4.330;2022-08-06T12:50:29;5.55;;;4.38;;
23119;SDS011;11729;50.836;4.330;2022-08-06T12:53:09;6.15;;;4.30;;
23119;SDS011;11729;50.836;4.330;2022-08-06T12:58:13;5.03;;;3.80;;
23119;SDS011;11729;50.836;4.330;2022-08-06T13:00:41;5.00;;;3.72;;
23119;SDS011;11729;50.836;4.330;2022-08-06T13:03:10;9.70;;;3.97;;
23119;SDS011;11729;50.836;4.330;2022-08-06T13:05:37;4.53;;;3.90;;
23119;SDS011;11729;50.836;4.330;2022-08-06T13:08:03;4.28;;;3.97;;
23119;SDS011;11729;50.836;4.330;2022-08-06T13:10:29;6.18;;;4.07;;
23119;SDS011;11729;50.836;4.330;2022-08-06T13:12:56;8.52;;;4.55;;
23119;SDS011;11729;50.836;4.330;2022-08-06T13:15:30;5.05;;;4.15;;
23119;SDS011;11729;50.836;4.330;2022-08-06T13:18:13;8.73;;;4.43;;
23119;SDS011;11729;50.836;4.330;2022-08-06T13:20:43;6.80;;;4.10;;
23119;SDS011;11729;50.836;4.330;2022-08-06T13:23:10;6.05;;;4.35;;
23119;SDS011;11729;50.836;4.330;2022-08-06T13:25:41;5.45;;;4.88;;
23119;SDS011;11729;50.836;4.330;2022-08-06T13:28:11;4.88;;;4.47;;
23119;SDS011;11729;50.836;4.330;2022-08-06T13:30:41;4.80;;;4.10;;
23119;SDS011;11729;50.836;4.330;2022-08-06T13:36:29;4.93;;;4.40;;
23119;SDS011;11729;50.836;4.330;2022-08-06T13:38:56;4.90;;;4.00;;
23119;SDS011;11729;50.836;4.330;2022-08-06T13:41:27;4.90;;;4.30;;
23119;SDS011;11729;50.836;4.330;2022-08-06T13:43:56;5.10;;;4.20;;
23119;SDS011;11729;50.836;4.330;2022-08-06T13:46:23;4.82;;;4.43;;
23119;SDS011;11729;50.836;4.330;2022-08-06T13:48:51;4.65;;;4.30;;
23119;SDS011;11729;50.836;4.330;2022-08-06T13:51:18;7.90;;;4.38;;
23119;SDS011;11729;50.836;4.330;2022-08-06T13:53:46;5.55;;;4.95;;
23119;SDS011;11729;50.836;4.330;2022-08-06T13:56:15;4.85;;;4.40;;
23119;SDS011;11729;50.836;4.330;2022-08-06T13:58:42;5.43;;;4.43;;
23119;SDS011;11729;50.836;4.330;2022-08-06T14:01:11;5.05;;;4.55;;
23119;SDS011;11729;50.836;4.330;2022-08-06T14:03:40;5.10;;;4.60;;
23119;SDS011;11729;50.836;4.330;2022-08-06T14:06:05;7.13;;;4.43;;
23119;SDS011;11729;50.836;4.330;2022-08-06T14:08:31;6.50;;;4.40;;
23119;SDS011;11729;50.836;4.330;2022-08-06T14:10:58;5.43;;;4.30;;
23119;SDS011;11729;50.836;4.330;2022-08-06T14:13:23;5.40;;;4.40;;
23119;SDS011;11729;50.836;4.330;2022-08-06T14:15:49;5.20;;;4.70;;
23119;SDS011;11729;50.836;4.330;2022-08-06T14:18:19;5.37;;;4.87;;
23119;SDS011;11729;50.836;4.330;2022-08-06T14:20:47;7.60;;;5.43;;
23119;SDS011;11729;50.836;4.330;2022-08-06T14:23:13;6.07;;;4.80;;
23119;SDS011;11729;50.836;4.330;2022-08-06T14:25:38;4.70;;;4.30;;
23119;SDS011;11729;50.836;4.330;2022-08-06T14:28:04;5.03;;;4.55;;
23119;SDS011;11729;50.836;4.330;2022-08-06T14:30:30;7.25;;;4.78;;
23119;SDS011;11729;50.836;4.330;2022-08-06T14:32:58;5.32;;;4.85;;
23119;SDS011;11729;50.836;4.330;2022-08-06T14:35:28;6.45;;;4.65;;
23119;SDS011;11729;50.836;4.330;2022-08-06T14:37:57;4.80;;;4.40;;
23119;SDS011;11729;50.836;4.330;2022-08-06T14:40:23;5.25;;;4.60;;
23119;SDS011;11729;50.836;4.330;2022-08-06T14:43:07;5.03;;;4.60;;
23119;SDS011;11729;50.836;4.330;2022-08-06T14:45:52;5.45;;;4.95;;
23119;SDS011;11729;50.836;4.330;2022-08-06T14:48:17;5.38;;;4.75;;
23119;SDS011;11729;50.836;4.330;2022-08-06T14:50:43;4.90;;;4.50;;
23119;SDS011;11729;50.836;4.330;2022-08-06T14:53:11;5.65;;;5.18;;
23119;SDS011;11729;50.836;4.330;2022-08-06T14:55:40;8.48;;;4.90;;
23119;SDS011;11729;50.836;4.330;2022-08-06T14:58:05;6.35;;;4.88;;
23119;SDS011;11729;50.836;4.330;2022-08-06T15:00:31;7.63;;;5.40;;
23119;SDS011;11729;50.836;4.330;2022-08-06T15:02:56;5.03;;;4.53;;
23119;SDS011;11729;50.836;4.330;2022-08-06T15:05:22;6.88;;;4.82;;
23119;SDS011;11729;50.836;4.330;2022-08-06T15:07:49;5.22;;;4.82;;
23119;SDS011;11729;50.836;4.330;2022-08-06T15:10:14;6.78;;;5.30;;
23119;SDS011;11729;50.836;4.330;2022-08-06T15:12:43;5.68;;;5.22;;
23119;SDS011;11729;50.836;4.330;2022-08-06T15:15:11;5.60;;;4.75;;
23119;SDS011;11729;50.836;4.330;2022-08-06T15:17:37;7.80;;;4.70;;
23119;SDS011;11729;50.836;4.330;2022-08-06T15:20:03;7.40;;;4.80;;
23119;SDS011;11729;50.836;4.330;2022-08-06T15:22:29;7.13;;;4.70;;
23119;SDS011;11729;50.836;4.330;2022-08-06T15:24:55;5.70;;;4.40;;
23119;SDS011;11729;50.836;4.330;2022-08-06T15:27:20;5.22;;;4.72;;
23119;SDS011;11729;50.836;4.330;2022-08-06T15:29:46;5.43;;;5.00;;
23119;SDS011;11729;50.836;4.330;2022-08-06T15:32:12;5.95;;;5.35;;
23119;SDS011;11729;50.836;4.330;2022-08-06T15:34:38;9.65;;;5.15;;
23119;SDS011;11729;50.836;4.330;2022-08-06T15:37:12;5.55;;;4.95;;
23119;SDS011;11729;50.836;4.330;2022-08-06T15:39:41;6.18;;;4.97;;
23119;SDS011;11729;50.836;4.330;2022-08-06T15:42:06;7.43;;;5.50;;
23119;SDS011;11729;50.836;4.330;2022-08-06T15:44:32;5.93;;;5.00;;
23119;SDS011;11729;50.836;4.330;2022-08-06T15:46:59;6.72;;;5.15;;
23119;SDS011;11729;50.836;4.330;2022-08-06T15:49:24;5.32;;;4.90;;
23119;SDS011;11729;50.836;4.330;2022-08-06T15:51:50;5.32;;;4.90;;
23119;SDS011;11729;50.836;4.330;2022-08-06T15:54:16;7.20;;;5.30;;
23119;SDS011;11729;50.836;4.330;2022-08-06T15:56:41;5.65;;;4.75;;
23119;SDS011;11729;50.836;4.330;2022-08-06T15:59:07;6.88;;;4.70;;
23119;SDS011;11729;50.836;4.330;2022-08-06T16:01:33;4.97;;;4.57;;
23119;SDS011;11729;50.836;4.330;2022-08-06T16:04:01;5.63;;;4.97;;
23119;SDS011;11729;50.836;4.330;2022-08-06T16:06:27;5.43;;;4.97;;
23119;SDS011;11729;50.836;4.330;2022-08-06T16:08:55;5.88;;;5.30;;
23119;SDS011;11729;50.836;4.330;2022-08-06T16:11:21;6.40;;;5.07;;
23119;SDS011;11729;50.836;4.330;2022-08-06T16:13:46;5.30;;;4.80;;
23119;SDS011;11729;50.836;4.330;2022-08-06T16:16:12;5.30;;;4.80;;
23119;SDS011;11729;50.836;4.330;2022-08-06T16:18:37;5.30;;;4.88;;
23119;SDS011;11729;50.836;4.330;2022-08-06T16:21:03;5.88;;;5.00;;
23119;SDS011;11729;50.836;4.330;2022-08-06T16:23:29;6.05;;;5.05;;
23119;SDS011;11729;50.836;4.330;2022-08-06T16:25:54;6.70;;;5.00;;
23119;SDS011;11729;50.836;4.330;2022-08-06T16:28:20;6.95;;;5.10;;
23119;SDS011;11729;50.836;4.330;2022-08-06T16:30:46;5.28;;;4.82;;
23119;SDS011;11729;50.836;4.330;2022-08-06T16:33:12;5.50;;;5.10;;
23119;SDS011;11729;50.836;4.330;2022-08-06T16:35:37;5.57;;;5.07;;
23119;SDS011;11729;50.836;4.330;2022-08-06T16:38:04;7.93;;;5.22;;
23119;SDS011;11729;50.836;4.330;2022-08-06T16:40:29;7.38;;;4.75;;
23119;SDS011;11729;50.836;4.330;2022-08-06T16:42:55;5.57;;;4.90;;
23119;SDS011;11729;50.836;4.330;2022-08-06T16:45:22;5.20;;;4.53;;
23119;SDS011;11729;50.836;4.330;2022-08-06T16:47:49;5.40;;;4.90;;
23119;SDS011;11729;50.836;4.330;2022-08-06T16:50:16;6.13;;;5.07;;
23119;SDS011;11729;50.836;4.330;2022-08-06T16:52:42;5.18;;;4.78;;
23119;SDS011;11729;50.836;4.330;2022-08-06T16:55:08;6.93;;;5.10;;
23119;SDS011;11729;50.836;4.330;2022-08-06T16:57:35;5.25;;;4.75;;
23119;SDS011;11729;50.836;4.330;2022-08-06T17:00:01;5.57;;;5.05;;
23119;SDS011;11729;50.836;4.330;2022-08-06T17:02:29;10.30;;;5.50;;
23119;SDS011;11729;50.836;4.330;2022-08-06T17:05:04;6.25;;;5.40;;
23119;SDS011;11729;50.836;4.330;2022-08-06T17:07:34;7.70;;;5.38;;
23119;SDS011;11729;50.836;4.330;2022-08-06T17:10:01;7.20;;;5.82;;
23119;SDS011;11729;50.836;4.330;2022-08-06T17:12:28;5.63;;;5.13;;
23119;SDS011;11729;50.836;4.330;2022-08-06T17:14:54;9.20;;;5.60;;
23119;SDS011;11729;50.836;4.330;2022-08-06T17:17:19;5.38;;;4.88;;
23119;SDS011;11729;50.836;4.330;2022-08-06T17:19:45;6.35;;;4.90;;
23119;SDS011;11729;50.836;4.330;2022-08-06T17:22:11;5.97;;;5.50;;
23119;SDS011;11729;50.836;4.330;2022-08-06T17:24:37;5.60;;;5.03;;
23119;SDS011;11729;50.836;4.330;2022-08-06T17:27:03;7.53;;;5.30;;
23119;SDS011;11729;50.836;4.330;2022-08-06T17:29:32;6.55;;;5.90;;
23119;SDS011;11729;50.836;4.330;2022-08-06T17:31:58;5.95;;;5.45;;
23119;SDS011;11729;50.836;4.330;2022-08-06T17:34:24;6.82;;;5.75;;
23119;SDS011;11729;50.836;4.330;2022-08-06T17:36:51;7.60;;;5.55;;
23119;SDS011;11729;50.836;4.330;2022-08-06T17:39:16;5.80;;;5.30;;
23119;SDS011;11729;50.836;4.330;2022-08-06T17:41:42;6.18;;;5.57;;
23119;SDS011;11729;50.836;4.330;2022-08-06T17:44:08;6.00;;;5.40;;
23119;SDS011;11729;50.836;4.330;2022-08-06T17:46:33;9.75;;;5.32;;
23119;SDS011;11729;50.836;4.330;2022-08-06T17:48:59;7.70;;;5.30;;
23119;SDS011;11729;50.836;4.330;2022-08-06T17:51:24;8.55;;;5.30;;
23119;SDS011;11729;50.836;4.330;2022-08-06T17:53:51;8.30;;;5.60;;
23119;SDS011;11729;50.836;4.330;2022-08-06T17:56:18;6.60;;;5.97;;
23119;SDS011;11729;50.836;4.330;2022-08-06T17:58:44;6.35;;;5.70;;
23119;SDS011;11729;50.836;4.330;2022-08-06T18:01:09;9.60;;;6.70;;
23119;SDS011;11729;50.836;4.330;2022-08-06T18:03:35;8.02;;;6.90;;
23119;SDS011;11729;50.836;4.330;2022-08-06T18:06:02;12.88;;;6.60;;
23119;SDS011;11729;50.836;4.330;2022-08-06T18:08:28;6.78;;;5.88;;
23119;SDS011;11729;50.836;4.330;2022-08-06T18:10:53;7.38;;;5.85;;
23119;SDS011;11729;50.836;4.330;2022-08-06T18:13:19;6.25;;;5.43;;
23119;SDS011;11729;50.836;4.330;2022-08-06T18:15:45;5.75;;;5.18;;
23119;SDS011;11729;50.836;4.330;2022-08-06T18:18:11;5.30;;;4.82;;
23119;SDS011;11729;50.836;4.330;2022-08-06T18:20:37;7.30;;;4.82;;
23119;SDS011;11729;50.836;4.330;2022-08-06T18:23:02;5.82;;;5.15;;
23119;SDS011;11729;50.836;4.330;2022-08-06T18:25:28;7.18;;;5.50;;
23119;SDS011;11729;50.836;4.330;2022-08-06T18:27:54;5.82;;;5.32;;
23119;SDS011;11729;50.836;4.330;2022-08-06T18:30:20;7.82;;;5.38;;
23119;SDS011;11729;50.836;4.330;2022-08-06T18:32:47;5.50;;;5.10;;
23119;SDS011;11729;50.836;4.330;2022-08-06T18:35:13;6.70;;;4.90;;
23119;SDS011;11729;50.836;4.330;2022-08-06T18:37:42;6.30;;;5.05;;
23119;SDS011;11729;50.836;4.330;2022-08-06T18:40:09;6.18;;;5.18;;
23119;SDS011;11729;50.836;4.330;2022-08-06T18:42:36;5.50;;;5.00;;
23119;SDS011;11729;50.836;4.330;2022-08-06T18:45:03;7.15;;;5.28;;
23119;SDS011;11729;50.836;4.330;2022-08-06T18:47:31;5.43;;;4.93;;
23119;SDS011;11729;50.836;4.330;2022-08-06T18:49:56;6.55;;;4.82;;
23119;SDS011;11729;50.836;4.330;2022-08-06T18:52:23;6.00;;;5.10;;
23119;SDS011;11729;50.836;4.330;2022-08-06T18:54:50;10.45;;;4.97;;
23119;SDS011;11729;50.836;4.330;2022-08-06T18:57:20;6.10;;;4.85;;
23119;SDS011;11729;50.836;4.330;2022-08-06T18:59:46;5.47;;;4.78;;
23119;SDS011;11729;50.836;4.330;2022-08-06T19:02:11;7.22;;;4.80;;
23119;SDS011;11729;50.836;4.330;2022-08-06T19:04:37;11.82;;;4.93;;
23119;SDS011;11729;50.836;4.330;2022-08-06T19:07:04;8.27;;;5.10;;
23119;SDS011;11729;50.836;4.330;2022-08-06T19:09:32;7.35;;;5.60;;
23119;SDS011;11729;50.836;4.330;2022-08-06T19:12:04;5.93;;;5.38;;
23119;SDS011;11729;50.836;4.330;2022-08-06T19:14:35;16.15;;;5.47;;
23119;SDS011;11729;50.836;4.330;2022-08-06T19:17:04;7.55;;;4.93;;
23119;SDS011;11729;50.836;4.330;2022-08-06T19:19:32;7.55;;;5.43;;
23119;SDS011;11729;50.836;4.330;2022-08-06T19:21:58;5.90;;;4.90;;
23119;SDS011;11729;50.836;4.330;2022-08-06T19:24:24;5.65;;;5.15;;
23119;SDS011;11729;50.836;4.330;2022-08-06T19:26:50;6.55;;;5.10;;
23119;SDS011;11729;50.836;4.330;2022-08-06T19:29:17;7.03;;;5.28;;
23119;SDS011;11729;50.836;4.330;2022-08-06T19:31:42;10.07;;;4.97;;
23119;SDS011;11729;50.836;4.330;2022-08-06T19:34:09;8.27;;;4.95;;
23119;SDS011;11729;50.836;4.330;2022-08-06T19:36:37;6.13;;;5.13;;
23119;SDS011;11729;50.836;4.330;2022-08-06T19:39:02;6.72;;;5.20;;
23119;SDS011;11729;50.836;4.330;2022-08-06T19:41:28;6.00;;;5.50;;
23119;SDS011;11729;50.836;4.330;2022-08-06T19:43:54;8.23;;;5.93;;
23119;SDS011;11729;50.836;4.330;2022-08-06T19:46:19;9.48;;;6.43;;
23119;SDS011;11729;50.836;4.330;2022-08-06T19:48:45;9.68;;;7.10;;
23119;SDS011;11729;50.836;4.330;2022-08-06T19:51:11;9.98;;;8.93;;
23119;SDS011;11729;50.836;4.330;2022-08-06T19:53:37;8.98;;;6.70;;
23119;SDS011;11729;50.836;4.330;2022-08-06T19:56:03;9.05;;;6.18;;
23119;SDS011;11729;50.836;4.330;2022-08-06T19:58:29;8.38;;;5.63;;
23119;SDS011;11729;50.836;4.330;2022-08-06T20:00:55;6.28;;;5.22;;
23119;SDS011;11729;50.836;4.330;2022-08-06T20:03:32;7.65;;;6.30;;
23119;SDS011;11729;50.836;4.330;2022-08-06T20:06:02;9.10;;;7.40;;
23119;SDS011;11729;50.836;4.330;2022-08-06T20:08:29;8.30;;;7.37;;
23119;SDS011;11729;50.836;4.330;2022-08-06T20:10:55;8.57;;;7.60;;
23119;SDS011;11729;50.836;4.330;2022-08-06T20:13:22;10.98;;;7.80;;
23119;SDS011;11729;50.836;4.330;2022-08-06T20:15:47;9.88;;;7.18;;
23119;SDS011;11729;50.836;4.330;2022-08-06T20:18:13;11.82;;;6.63;;
23119;SDS011;11729;50.836;4.330;2022-08-06T20:20:39;11.25;;;7.47;;
23119;SDS011;11729;50.836;4.330;2022-08-06T20:23:05;11.07;;;7.75;;
23119;SDS011;11729;50.836;4.330;2022-08-06T20:25:31;8.93;;;7.43;;
23119;SDS011;11729;50.836;4.330;2022-08-06T20:27:58;8.23;;;6.75;;
23119;SDS011;11729;50.836;4.330;2022-08-06T20:30:24;8.13;;;7.20;;
23119;SDS011;11729;50.836;4.330;2022-08-06T20:32:50;10.27;;;7.05;;
23119;SDS011;11729;50.836;4.330;2022-08-06T20:35:16;9.73;;;6.90;;
23119;SDS011;11729;50.836;4.330;2022-08-06T20:37:43;6.97;;;6.30;;
23119;SDS011;11729;50.836;4.330;2022-08-06T20:40:10;8.63;;;6.35;;
23119;SDS011;11729;50.836;4.330;2022-08-06T20:42:41;7.45;;;6.50;;
23119;SDS011;11729;50.836;4.330;2022-08-06T20:45:07;8.95;;;6.53;;
23119;SDS011;11729;50.836;4.330;2022-08-06T20:47:35;8.35;;;6.22;;
23119;SDS011;11729;50.836;4.330;2022-08-06T20:50:00;8.98;;;6.97;;
23119;SDS011;11729;50.836;4.330;2022-08-06T20:52:26;7.75;;;7.00;;
23119;SDS011;11729;50.836;4.330;2022-08-06T20:54:52;8.20;;;7.40;;
23119;SDS011;11729;50.836;4.330;2022-08-06T20:57:18;9.40;;;6.82;;
23119;SDS011;11729;50.836;4.330;2022-08-06T20:59:45;14.10;;;7.38;;
23119;SDS011;11729;50.836;4.330;2022-08-06T21:02:11;10.68;;;6.88;;
23119;SDS011;11729;50.836;4.330;2022-08-06T21:04:37;11.15;;;6.50;;
23119;SDS011;11729;50.836;4.330;2022-08-06T21:07:03;7.20;;;6.50;;
23119;SDS011;11729;50.836;4.330;2022-08-06T21:09:29;9.73;;;6.25;;
23119;SDS011;11729;50.836;4.330;2022-08-06T21:11:55;7.75;;;5.90;;
23119;SDS011;11729;50.836;4.330;2022-08-06T21:14:20;8.73;;;6.03;;
23119;SDS011;11729;50.836;4.330;2022-08-06T21:16:46;6.88;;;5.65;;
23119;SDS011;11729;50.836;4.330;2022-08-06T21:19:11;7.93;;;5.90;;
23119;SDS011;11729;50.836;4.330;2022-08-06T21:21:37;7.07;;;5.47;;
23119;SDS011;11729;50.836;4.330;2022-08-06T21:24:04;7.45;;;5.82;;
23119;SDS011;11729;50.836;4.330;2022-08-06T21:26:30;8.10;;;5.80;;
23119;SDS011;11729;50.836;4.330;2022-08-06T21:28:56;8.60;;;6.30;;
23119;SDS011;11729;50.836;4.330;2022-08-06T21:31:22;6.72;;;6.03;;
23119;SDS011;11729;50.836;4.330;2022-08-06T21:33:48;8.23;;;6.70;;
23119;SDS011;11729;50.836;4.330;2022-08-06T21:36:16;9.43;;;7.00;;
23119;SDS011;11729;50.836;4.330;2022-08-06T21:38:41;9.38;;;7.80;;
23119;SDS011;11729;50.836;4.330;2022-08-06T21:41:07;8.20;;;7.40;;
23119;SDS011;11729;50.836;4.330;2022-08-06T21:43:51;10.88;;;6.93;;
23119;SDS011;11729;50.836;4.330;2022-08-06T21:46:17;11.27;;;6.68;;
23119;SDS011;11729;50.836;4.330;2022-08-06T21:48:42;8.40;;;6.38;;
23119;SDS011;11729;50.836;4.330;2022-08-06T21:51:08;7.78;;;6.22;;
23119;SDS011;11729;50.836;4.330;2022-08-06T21:53:33;6.05;;;5.53;;
23119;SDS011;11729;50.836;4.330;2022-08-06T21:55:59;11.60;;;6.50;;
23119;SDS011;11729;50.836;4.330;2022-08-06T21:58:24;8.48;;;6.45;;
23119;SDS011;11729;50.836;4.330;2022-08-06T22:00:50;6.50;;;5.88;;
23119;SDS011;11729;50.836;4.330;2022-08-06T22:03:16;7.45;;;5.85;;
23119;SDS011;11729;50.836;4.330;2022-08-06T22:05:42;6.35;;;5.80;;